Time;durP1;ratioP1;P1;durP2;ratioP2;P2;SDS_P1;SDS_P2;PMS_P1;PMS_P2;Temp;Humidity;BMP_temperature;BMP_pressure;BME280_temperature;BME280_humidity;BME280_pressure;Samples;Min_cycle;Max_cycle;Signal;HPM_P1;HPM_P2
2023/04/20 00:01:55;;;;;;;2.17;0.73;;;22.80;68.20;;;;;;5170795;23;20016;-59
2023/04/20 00:04:17;;;;;;;;;;;22.80;68.20;;;;;;5172344;23;20023;-58
2023/04/20 00:06:41;;;;;;;1.15;0.88;;;22.80;68.10;;;;;;5173360;22;19912;-58
2023/04/20 00:09:03;;;;;;;6.32;0.85;;;22.90;68.10;;;;;;5170911;23;20505;-61
2023/04/20 00:11:28;;;;;;;1.25;0.70;;;22.90;68.10;;;;;;5169937;23;20556;-60
2023/04/20 00:13:51;;;;;;;1.23;0.52;;;22.90;67.90;;;;;;5162029;22;20146;-66
2023/04/20 00:16:13;;;;;;;2.83;0.73;;;22.90;67.70;;;;;;5169799;23;20366;-61
2023/04/20 00:18:35;;;;;;;1.40;0.75;;;23.00;67.80;;;;;;5170007;23;20343;-59
2023/04/20 00:20:58;;;;;;;1.48;0.60;;;23.00;67.80;;;;;;5173023;23;20027;-59
2023/04/20 00:23:20;;;;;;;4.05;0.82;;;23.00;67.70;;;;;;5170992;23;20016;-69
2023/04/20 00:25:43;;;;;;;7.75;1.17;;;23.00;67.70;;;;;;5167215;23;20015;-64
2023/04/20 00:28:05;;;;;;;3.22;1.02;;;23.00;67.50;;;;;;5167538;23;20012;-64
2023/04/20 00:30:28;;;;;;;3.13;0.75;;;23.00;67.40;;;;;;5170683;23;20012;-64
2023/04/20 00:32:50;;;;;;;3.72;0.60;;;22.90;67.50;;;;;;5149624;23;20067;-74
2023/04/20 00:35:13;;;;;;;16.42;2.17;;;22.90;67.50;;;;;;5171373;23;20047;-59
2023/04/20 00:37:35;;;;;;;4.25;1.10;;;22.90;67.70;;;;;;5171479;23;20012;-65
2023/04/20 00:39:58;;;;;;;3.70;1.00;;;23.00;67.70;;;;;;5170740;23;20012;-61
2023/04/20 00:42:20;;;;;;;8.20;1.48;;;23.00;67.80;;;;;;5171472;23;20354;-69
2023/04/20 00:44:45;;;;;;;6.95;1.50;;;23.00;67.60;;;;;;5161825;22;20020;-70
2023/04/20 00:47:07;;;;;;;7.38;1.23;;;23.00;67.60;;;;;;5171510;23;20385;-61
2023/04/20 00:49:30;;;;;;;12.98;1.85;;;23.00;67.50;;;;;;5169652;23;20028;-70
2023/04/20 00:51:53;;;;;;;8.80;1.48;;;23.00;67.60;;;;;;5140878;22;20051;-59
2023/04/20 00:54:15;;;;;;;6.25;1.63;;;23.00;67.60;;;;;;5169664;23;20040;-60
2023/04/20 00:56:38;;;;;;;9.25;1.80;;;23.00;66.10;;;;;;5169088;23;20119;-54
2023/04/20 00:59:01;;;;;;;5.68;1.35;;;23.00;66.80;;;;;;5170269;23;20012;-58
2023/04/20 01:01:24;;;;;;;3.42;1.10;;;23.00;67.20;;;;;;5170843;23;20015;-59
2023/04/20 01:03:47;;;;;;;2.42;0.90;;;23.00;67.20;;;;;;5170897;22;20016;-60
2023/04/20 01:06:09;;;;;;;7.18;1.33;;;23.00;67.30;;;;;;5170304;23;20023;-54
2023/04/20 01:08:32;;;;;;;7.20;1.80;;;23.00;67.20;;;;;;5170102;23;20343;-59
2023/04/20 01:10:55;;;;;;;3.33;1.30;;;23.10;67.70;;;;;;5171508;23;20046;-65
2023/04/20 01:13:17;;;;;;;6.32;1.23;;;23.10;67.70;;;;;;5141507;22;20016;-58
2023/04/20 01:15:39;;;;;;;3.92;1.30;;;23.10;67.80;;;;;;5171179;23;20032;-58
2023/04/20 01:18:02;;;;;;;2.25;1.25;;;23.20;67.90;;;;;;5161117;22;20012;-52
2023/04/20 01:20:24;;;;;;;4.68;1.20;;;23.20;67.60;;;;;;5159991;23;20020;-52
2023/04/20 01:22:52;;;;;;;3.20;1.08;;;23.20;67.60;;;;;;5170900;23;20348;-52
2023/04/20 01:25:15;;;;;;;3.88;1.33;;;23.20;67.40;;;;;;5136777;23;20031;-53
2023/04/20 01:27:38;;;;;;;2.80;1.10;;;23.30;67.40;;;;;;5169133;23;20012;-51
2023/04/20 01:30:00;;;;;;;2.80;0.98;;;23.30;67.30;;;;;;5170540;23;20735;-50
2023/04/20 01:32:22;;;;;;;5.15;1.60;;;23.30;67.10;;;;;;5135230;23;20039;-49
2023/04/20 01:34:45;;;;;;;1.83;0.77;;;23.30;67.00;;;;;;5169061;23;20069;-50
2023/04/20 01:37:07;;;;;;;1.48;0.80;;;23.30;67.20;;;;;;5169458;23;20476;-55
2023/04/20 01:39:30;;;;;;;3.05;1.00;;;23.30;67.10;;;;;;5136432;23;20066;-54
2023/04/20 01:41:52;;;;;;;2.00;0.90;;;23.30;67.00;;;;;;5171162;23;20319;-58
2023/04/20 01:44:15;;;;;;;3.00;0.82;;;23.30;66.90;;;;;;5170764;23;20008;-57
2023/04/20 01:46:41;;;;;;;2.47;1.30;;;23.30;66.90;;;;;;5169713;23;20038;-60
2023/04/20 01:49:03;;;;;;;2.20;0.95;;;23.30;66.90;;;;;;5169483;23;20024;-59
2023/04/20 01:51:26;;;;;;;3.58;1.00;;;23.30;66.90;;;;;;5170665;23;20016;-60
2023/04/20 01:53:48;;;;;;;1.73;0.90;;;23.30;66.90;;;;;;5170738;23;20428;-59
2023/04/20 01:56:11;;;;;;;1.73;0.95;;;23.30;66.80;;;;;;5170127;23;20484;-61
2023/04/20 01:58:33;;;;;;;3.35;1.30;;;23.30;66.80;;;;;;5168792;23;20354;-59
2023/04/20 02:00:56;;;;;;;1.05;0.50;;;23.30;66.60;;;;;;5168276;23;20169;-60
2023/04/20 02:03:18;;;;;;;9.48;1.27;;;23.40;66.60;;;;;;5168582;22;20039;-59
2023/04/20 02:05:40;;;;;;;4.88;1.17;;;23.30;66.50;;;;;;5167914;23;20240;-59
2023/04/20 02:08:03;;;;;;;2.63;0.88;;;23.40;66.50;;;;;;5168061;23;20016;-59
2023/04/20 02:10:25;;;;;;;5.13;1.10;;;23.30;66.50;;;;;;5140007;22;20071;-59
2023/04/20 02:12:49;;;;;;;4.57;1.00;;;23.30;66.50;;;;;;5164453;23;20504;-57
2023/04/20 02:15:12;;;;;;;3.33;0.85;;;23.30;66.50;;;;;;5133106;23;20016;-61
2023/04/20 02:17:37;;;;;;;3.65;1.13;;;23.30;66.60;;;;;;5171149;23;20016;-59
2023/04/20 02:19:59;;;;;;;2.63;0.93;;;23.40;66.70;;;;;;5169596;23;20043;-60
2023/04/20 02:22:22;;;;;;;2.35;0.85;;;23.30;66.50;;;;;;5142604;22;20060;-60
2023/04/20 02:24:44;;;;;;;4.07;1.05;;;23.40;66.60;;;;;;5170313;23;20454;-58
2023/04/20 02:27:07;;;;;;;3.00;0.98;;;23.40;66.60;;;;;;5170996;23;20051;-59
2023/04/20 02:29:29;;;;;;;2.80;1.23;;;23.40;66.70;;;;;;5143297;22;20016;-59
2023/04/20 02:31:51;;;;;;;4.85;1.58;;;23.40;66.60;;;;;;5170306;23;20027;-58
2023/04/20 02:34:14;;;;;;;9.93;1.25;;;23.40;66.60;;;;;;5170609;23;20012;-57
2023/04/20 02:36:37;;;;;;;4.35;1.00;;;23.40;66.60;;;;;;5170508;23;20035;-58
2023/04/20 02:38:59;;;;;;;3.47;1.40;;;23.40;66.60;;;;;;5172081;23;20012;-57
2023/04/20 02:41:21;;;;;;;6.22;1.00;;;23.40;66.60;;;;;;5171823;23;20094;-56
2023/04/20 02:43:44;;;;;;;2.50;1.10;;;23.50;66.50;;;;;;5170792;23;20030;-59
2023/04/20 02:46:07;;;;;;;4.45;1.00;;;23.50;66.50;;;;;;5168621;23;20035;-59
2023/04/20 02:48:29;;;;;;;1.63;0.63;;;23.50;66.30;;;;;;5168230;23;20027;-60
2023/04/20 02:50:56;;;;;;;3.63;0.90;;;23.50;66.20;;;;;;5171015;23;20086;-62
2023/04/20 02:53:18;;;;;;;5.97;1.90;;;23.50;65.90;;;;;;5144041;22;20028;-59
2023/04/20 02:55:41;;;;;;;4.03;1.65;;;23.50;65.00;;;;;;5164664;22;20031;-59
2023/04/20 02:58:03;;;;;;;5.25;1.70;;;23.40;64.50;;;;;;5169547;23;20008;-55
2023/04/20 03:00:26;;;;;;;5.03;1.60;;;23.40;65.40;;;;;;5172235;23;20099;-59
2023/04/20 03:02:48;;;;;;;3.92;1.55;;;23.40;65.90;;;;;;5169099;22;20042;-59
2023/04/20 03:05:11;;;;;;;3.13;1.27;;;23.40;66.10;;;;;;5170000;23;20027;-57
2023/04/20 03:07:33;;;;;;;5.00;1.73;;;23.40;66.30;;;;;;5169400;23;20113;-59
2023/04/20 03:09:55;;;;;;;5.43;1.67;;;23.40;66.30;;;;;;5170360;23;20027;-60
2023/04/20 03:12:18;;;;;;;4.95;1.33;;;23.40;66.40;;;;;;5169427;23;20050;-59
2023/04/20 03:14:41;;;;;;;3.42;1.50;;;23.40;66.40;;;;;;5163178;23;20016;-59
2023/04/20 03:17:03;;;;;;;4.75;1.50;;;23.40;66.20;;;;;;5172465;23;20034;-57
2023/04/20 03:19:25;;;;;;;2.75;1.08;;;23.40;66.30;;;;;;5170794;23;20318;-57
2023/04/20 03:21:48;;;;;;;5.32;1.80;;;23.40;66.30;;;;;;5170144;23;20008;-55
2023/04/20 03:24:10;;;;;;;4.97;1.98;;;23.40;65.70;;;;;;5170031;23;20054;-55
2023/04/20 03:26:33;;;;;;;4.60;1.50;;;23.40;65.70;;;;;;5170739;23;20086;-60
2023/04/20 03:28:55;;;;;;;3.75;1.33;;;23.40;65.90;;;;;;5171153;23;20446;-62
2023/04/20 03:31:18;;;;;;;5.38;1.70;;;23.40;66.10;;;;;;5170784;23;20323;-59
2023/04/20 03:33:40;;;;;;;3.67;1.63;;;23.40;66.00;;;;;;5170788;23;20035;-58
2023/04/20 03:36:04;;;;;;;4.43;1.45;;;23.40;66.30;;;;;;5171793;23;20358;-58
2023/04/20 03:38:27;;;;;;;2.47;1.40;;;23.40;66.30;;;;;;5171485;23;20099;-59
2023/04/20 03:40:49;;;;;;;1.92;0.82;;;23.40;66.30;;;;;;5138343;23;20339;-58
2023/04/20 03:43:12;;;;;;;2.38;1.20;;;23.40;66.30;;;;;;5168309;23;20012;-59
2023/04/20 03:45:34;;;;;;;2.58;1.00;;;23.40;66.30;;;;;;5171077;23;20047;-54
2023/04/20 03:47:57;;;;;;;2.80;0.90;;;23.40;66.30;;;;;;5169141;23;20070;-64
2023/04/20 03:50:19;;;;;;;3.08;1.23;;;23.40;66.40;;;;;;5168133;23;20441;-58
2023/04/20 03:52:42;;;;;;;2.70;1.35;;;23.40;66.30;;;;;;5168817;23;20047;-59
2023/04/20 03:55:04;;;;;;;3.22;1.10;;;23.50;66.50;;;;;;5167721;23;20050;-57
2023/04/20 03:57:27;;;;;;;2.85;1.17;;;23.50;66.60;;;;;;5162164;22;20409;-58
2023/04/20 03:59:49;;;;;;;3.83;1.17;;;23.50;66.60;;;;;;5166545;23;20052;-59
2023/04/20 04:02:12;;;;;;;3.88;1.17;;;23.40;66.50;;;;;;5167811;22;20012;-57
2023/04/20 04:04:34;;;;;;;3.80;1.40;;;23.40;66.50;;;;;;5162933;23;20077;-59
2023/04/20 04:06:57;;;;;;;3.80;1.25;;;23.50;66.60;;;;;;5171272;23;20259;-59
2023/04/20 04:09:19;;;;;;;3.72;1.52;;;23.50;67.10;;;;;;5168396;23;20331;-57
2023/04/20 04:11:42;;;;;;;3.55;1.02;;;23.50;66.30;;;;;;5170214;23;20018;-57
2023/04/20 04:14:04;;;;;;;2.78;1.33;;;23.50;66.50;;;;;;5171308;23;20038;-60
2023/04/20 04:16:27;;;;;;;3.47;1.10;;;23.50;66.40;;;;;;5171112;23;20024;-57
2023/04/20 04:18:49;;;;;;;4.45;1.38;;;23.50;66.40;;;;;;5170155;23;20405;-56
2023/04/20 04:21:12;;;;;;;2.30;1.10;;;23.50;66.30;;;;;;5142943;22;20024;-53
2023/04/20 04:23:34;;;;;;;2.85;1.05;;;23.50;66.20;;;;;;5160903;23;20016;-58
2023/04/20 04:25:57;;;;;;;3.05;1.10;;;23.50;66.20;;;;;;5138233;23;20067;-58
2023/04/20 04:28:20;;;;;;;3.58;1.40;;;23.50;66.20;;;;;;5164411;22;20077;-61
2023/04/20 04:30:42;;;;;;;4.75;1.48;;;23.50;66.30;;;;;;5171774;23;20016;-57
2023/04/20 04:33:05;;;;;;;3.15;1.02;;;23.50;66.30;;;;;;5171210;23;20012;-59
2023/04/20 04:35:29;;;;;;;2.47;1.25;;;23.50;66.30;;;;;;5171374;23;20400;-59
2023/04/20 04:37:51;;;;;;;;;;;23.50;66.30;;;;;;5160738;23;20047;-57
2023/04/20 04:40:14;;;;;;;2.90;0.93;;;23.60;66.40;;;;;;5165998;23;19907;-58
2023/04/20 04:42:36;;;;;;;2.72;1.10;;;23.50;66.30;;;;;;5169819;23;20099;-57
2023/04/20 04:45:00;;;;;;;2.97;0.82;;;23.60;66.30;;;;;;5161945;22;20055;-59
2023/04/20 04:47:23;;;;;;;3.35;0.73;;;23.60;66.30;;;;;;5141220;22;20541;-60
2023/04/20 04:49:45;;;;;;;4.22;1.40;;;23.60;66.40;;;;;;5170967;23;20019;-57
2023/04/20 04:52:08;;;;;;;3.45;1.00;;;23.60;66.40;;;;;;5171539;23;20023;-58
2023/04/20 04:54:31;;;;;;;12.88;1.70;;;23.60;66.40;;;;;;5170760;23;20416;-55
2023/04/20 04:56:53;;;;;;;4.78;1.45;;;23.60;66.30;;;;;;5170675;23;20024;-51
2023/04/20 04:59:15;;;;;;;7.68;2.33;;;23.50;66.20;;;;;;5169485;23;20487;-61
2023/04/20 05:01:38;;;;;;;3.17;1.10;;;23.60;66.40;;;;;;5170261;23;20023;-58
2023/04/20 05:04:00;;;;;;;6.22;1.40;;;23.50;66.20;;;;;;5169284;23;20022;-58
2023/04/20 05:06:23;;;;;;;9.82;1.50;;;23.50;66.00;;;;;;5170563;23;20512;-58
2023/04/20 05:08:46;;;;;;;11.75;1.55;;;23.50;65.90;;;;;;5143122;22;20462;-58
2023/04/20 05:11:08;;;;;;;2.58;1.00;;;23.40;65.70;;;;;;5164851;22;20016;-58
2023/04/20 05:13:31;;;;;;;3.72;1.10;;;23.50;65.60;;;;;;5168057;23;20016;-58
2023/04/20 05:15:53;;;;;;;7.32;1.13;;;23.40;65.40;;;;;;5170424;23;20027;-58
2023/04/20 05:18:15;;;;;;;2.35;0.95;;;23.40;65.30;;;;;;5169078;23;20065;-58
2023/04/20 05:20:38;;;;;;;2.67;0.90;;;23.40;65.20;;;;;;5163179;22;20289;-58
2023/04/20 05:23:00;;;;;;;1.95;0.88;;;23.40;65.20;;;;;;5167157;23;20271;-59
2023/04/20 05:25:23;;;;;;;3.20;1.20;;;23.40;65.20;;;;;;5169498;23;20103;-57
2023/04/20 05:27:46;;;;;;;4.20;1.23;;;23.40;65.00;;;;;;5165058;23;20008;-58
2023/04/20 05:30:08;;;;;;;2.42;1.05;;;23.40;64.90;;;;;;5170414;23;20346;-58
2023/04/20 05:32:31;;;;;;;3.20;1.00;;;23.30;65.00;;;;;;5172009;23;20023;-58
2023/04/20 05:34:53;;;;;;;2.28;0.93;;;23.30;65.00;;;;;;5169840;23;20020;-58
2023/04/20 05:37:16;;;;;;;2.58;1.05;;;23.30;65.00;;;;;;5141885;22;20036;-58
2023/04/20 05:39:39;;;;;;;2.40;1.15;;;23.30;65.00;;;;;;5171275;23;20015;-58
2023/04/20 05:42:01;;;;;;;4.32;1.48;;;23.30;65.00;;;;;;5171907;23;20019;-57
2023/04/20 05:44:24;;;;;;;2.95;0.68;;;23.30;65.00;;;;;;5165146;23;20757;-56
2023/04/20 05:46:46;;;;;;;2.45;0.98;;;23.30;65.80;;;;;;5168566;23;20461;-51
2023/04/20 05:49:09;;;;;;;2.55;0.77;;;23.20;66.00;;;;;;5144531;23;20020;-56
2023/04/20 05:51:32;;;;;;;1.45;0.70;;;23.20;66.50;;;;;;5145560;23;20066;-59
2023/04/20 05:53:55;;;;;;;2.05;1.02;;;23.20;66.90;;;;;;5142048;23;20560;-51
2023/04/20 05:56:17;;;;;;;2.70;0.80;;;23.10;67.10;;;;;;5146358;23;20020;-50
2023/04/20 05:58:40;;;;;;;3.40;1.00;;;23.10;67.30;;;;;;5142443;23;20016;-55
2023/04/20 06:01:03;;;;;;;3.15;0.75;;;23.10;67.30;;;;;;5146487;23;20040;-50
2023/04/20 06:03:25;;;;;;;2.20;0.70;;;23.10;67.50;;;;;;5145492;23;20012;-57
2023/04/20 06:05:48;;;;;;;1.70;0.80;;;23.10;67.70;;;;;;5146749;23;20092;-49
2023/04/20 06:08:10;;;;;;;2.05;0.63;;;23.10;67.70;;;;;;5147802;23;20022;-53
2023/04/20 06:10:33;;;;;;;2.55;1.02;;;23.10;67.70;;;;;;5146772;23;20465;-56
2023/04/20 06:12:55;;;;;;;1.95;0.60;;;23.10;67.90;;;;;;5135903;23;20099;-58
2023/04/20 06:15:18;;;;;;;2.03;0.73;;;23.10;67.80;;;;;;5147451;23;20473;-54
2023/04/20 06:17:40;;;;;;;2.50;0.93;;;23.10;68.00;;;;;;5146058;23;20016;-58
2023/04/20 06:20:04;;;;;;;1.65;0.80;;;23.10;67.90;;;;;;5145654;23;20039;-49
2023/04/20 06:22:26;;;;;;;2.38;0.73;;;23.10;67.80;;;;;;5146460;23;20103;-59
2023/04/20 06:24:49;;;;;;;2.53;0.73;;;23.10;67.80;;;;;;5144151;23;20705;-55
2023/04/20 06:27:12;;;;;;;3.22;0.63;;;23.10;67.90;;;;;;5133203;23;20020;-55
2023/04/20 06:29:34;;;;;;;1.55;0.93;;;23.10;68.40;;;;;;5138547;23;20052;-52
2023/04/20 06:31:57;;;;;;;1.38;0.63;;;23.10;67.70;;;;;;5140768;23;20062;-50
2023/04/20 06:34:19;;;;;;;3.80;0.90;;;23.10;67.70;;;;;;5146430;23;20020;-57
2023/04/20 06:36:45;;;;;;;2.50;0.70;;;23.10;67.90;;;;;;5144591;23;20366;-58
2023/04/20 06:39:07;;;;;;;2.55;1.45;;;23.10;67.80;;;;;;5145010;23;20486;-51
2023/04/20 06:41:29;;;;;;;1.60;0.60;;;23.10;67.70;;;;;;5134116;23;20027;-51
2023/04/20 06:43:52;;;;;;;3.10;1.00;;;23.10;67.80;;;;;;5146677;23;20016;-58
2023/04/20 06:46:14;;;;;;;1.90;0.90;;;23.10;67.70;;;;;;5146864;23;20023;-58
2023/04/20 06:48:37;;;;;;;3.10;1.33;;;23.10;67.70;;;;;;5166006;23;20017;-52
2023/04/20 06:51:00;;;;;;;2.17;0.80;;;23.10;67.60;;;;;;5170992;23;20016;-53
2023/04/20 06:53:22;;;;;;;4.80;0.83;;;23.10;67.70;;;;;;5160934;23;20015;-53
2023/04/20 06:55:44;;;;;;;7.25;1.13;;;23.10;67.60;;;;;;5162269;22;20020;-61
2023/04/20 06:58:07;;;;;;;7.78;1.30;;;23.10;67.80;;;;;;5163387;23;20313;-57
2023/04/20 07:00:30;;;;;;;4.65;1.20;;;23.20;67.90;;;;;;5170297;23;20500;-57
2023/04/20 07:02:52;;;;;;;6.10;1.23;;;23.20;67.80;;;;;;5170606;22;20023;-58
2023/04/20 07:05:16;;;;;;;7.65;1.52;;;23.20;67.70;;;;;;5172570;23;20044;-57
2023/04/20 07:07:39;;;;;;;3.97;0.73;;;23.20;67.60;;;;;;5172458;23;20087;-57
2023/04/20 07:10:01;;;;;;;3.20;0.93;;;23.20;67.60;;;;;;5138629;23;20024;-53
2023/04/20 07:12:24;;;;;;;3.13;0.82;;;23.20;67.40;;;;;;5142100;22;20013;-59
2023/04/20 07:14:46;;;;;;;4.10;1.40;;;23.20;67.30;;;;;;5171502;23;20039;-58
2023/04/20 07:17:08;;;;;;;4.20;1.75;;;23.20;67.30;;;;;;5168128;23;20414;-62
2023/04/20 07:19:31;;;;;;;23.25;1.85;;;23.20;67.00;;;;;;5160829;23;20027;-60
2023/04/20 07:21:54;;;;;;;4.57;1.58;;;23.20;66.80;;;;;;5163273;23;20028;-60
2023/04/20 07:24:16;;;;;;;5.53;1.50;;;23.20;66.90;;;;;;5168090;23;20016;-59
2023/04/20 07:26:39;;;;;;;4.95;1.65;;;23.20;66.70;;;;;;5161805;23;20331;-59
2023/04/20 07:29:01;;;;;;;5.25;1.58;;;23.20;66.70;;;;;;5162635;23;20027;-58
2023/04/20 07:31:24;;;;;;;3.47;0.90;;;23.20;66.70;;;;;;5161352;23;20442;-59
2023/04/20 07:33:46;;;;;;;7.20;1.40;;;23.20;66.60;;;;;;5166074;23;20079;-57
2023/04/20 07:36:09;;;;;;;4.30;1.15;;;23.20;66.70;;;;;;5165953;23;20051;-56
2023/04/20 07:38:32;;;;;;;4.13;1.48;;;23.20;66.80;;;;;;5166666;23;20394;-54
2023/04/20 07:40:54;;;;;;;6.80;1.30;;;23.10;66.80;;;;;;5168813;23;20020;-54
2023/04/20 07:43:16;;;;;;;5.60;1.40;;;23.20;66.80;;;;;;5167717;23;20122;-55
2023/04/20 07:45:42;;;;;;;6.22;1.52;;;23.10;66.80;;;;;;5169160;23;20784;-61
2023/04/20 07:48:04;;;;;;;5.88;1.40;;;23.10;67.00;;;;;;5163948;22;20016;-60
2023/04/20 07:50:27;;;;;;;4.53;1.17;;;23.10;67.00;;;;;;5171334;23;20016;-61
2023/04/20 07:52:49;;;;;;;2.88;1.00;;;23.10;66.90;;;;;;5171897;23;20369;-62
2023/04/20 07:55:13;;;;;;;4.97;1.05;;;23.10;66.80;;;;;;5170393;23;20070;-58
2023/04/20 07:57:35;;;;;;;3.22;1.20;;;23.10;66.70;;;;;;5164856;22;20020;-59
2023/04/20 07:59:57;;;;;;;3.95;1.33;;;23.10;66.70;;;;;;5171874;23;20019;-59
2023/04/20 08:02:20;;;;;;;2.22;0.82;;;23.00;66.60;;;;;;5171865;22;20066;-60
2023/04/20 08:04:45;;;;;;;3.88;1.13;;;23.00;66.60;;;;;;5170332;23;20035;-58
2023/04/20 08:07:08;;;;;;;5.05;1.45;;;23.00;66.60;;;;;;5169178;23;20443;-56
2023/04/20 08:09:30;;;;;;;1.92;0.88;;;23.00;66.70;;;;;;5167143;23;20365;-58
2023/04/20 08:11:53;;;;;;;4.95;1.33;;;22.90;66.00;;;;;;5171333;23;20008;-58
2023/04/20 08:14:15;;;;;;;7.85;2.00;;;22.90;65.30;;;;;;5169357;23;20015;-58
2023/04/20 08:16:38;;;;;;;3.20;1.35;;;22.90;65.10;;;;;;5171626;23;20024;-59
2023/04/20 08:19:00;;;;;;;4.47;1.70;;;22.90;65.10;;;;;;5171482;23;20008;-59
2023/04/20 08:21:23;;;;;;;5.78;2.25;;;22.80;65.00;;;;;;5142765;22;20021;-59
2023/04/20 08:23:45;;;;;;;4.68;2.35;;;22.80;65.10;;;;;;5171573;23;20338;-59
2023/04/20 08:26:07;;;;;;;6.50;2.90;;;22.70;65.20;;;;;;5172336;23;20023;-59
2023/04/20 08:28:30;;;;;;;4.88;2.90;;;22.70;65.20;;;;;;5171688;23;20012;-59
2023/04/20 08:30:53;;;;;;;6.32;3.03;;;22.70;65.30;;;;;;5149342;23;20610;-56
2023/04/20 08:33:16;;;;;;;6.93;2.70;;;22.60;65.30;;;;;;5166287;23;20066;-59
2023/04/20 08:35:39;;;;;;;6.07;2.85;;;22.60;65.50;;;;;;5163360;22;20015;-58
2023/04/20 08:38:01;;;;;;;5.70;2.97;;;22.60;65.50;;;;;;5170629;23;20103;-59
2023/04/20 08:40:24;;;;;;;5.05;3.00;;;22.50;65.50;;;;;;5170862;23;20012;-56
2023/04/20 08:42:46;;;;;;;6.20;2.70;;;22.50;65.60;;;;;;5141976;22;20087;-60
2023/04/20 08:45:09;;;;;;;8.23;2.65;;;22.50;65.80;;;;;;5170817;23;20119;-59
2023/04/20 08:47:34;;;;;;;4.30;2.28;;;22.50;65.90;;;;;;5169830;23;20453;-59
2023/04/20 08:49:59;;;;;;;4.72;2.22;;;22.50;66.20;;;;;;5168236;23;20091;-59
2023/04/20 08:52:21;;;;;;;4.15;2.20;;;22.50;66.30;;;;;;5167929;23;20453;-56
2023/04/20 08:54:44;;;;;;;3.85;2.10;;;22.50;66.40;;;;;;5140857;23;20421;-61
2023/04/20 08:57:06;;;;;;;3.50;1.80;;;22.50;66.50;;;;;;5159891;23;20032;-57
2023/04/20 08:59:30;;;;;;;3.25;1.77;;;22.40;66.50;;;;;;5154859;22;20509;-57
2023/04/20 09:01:52;;;;;;;4.15;1.98;;;22.40;66.80;;;;;;5159721;23;20023;-54
2023/04/20 09:04:17;;;;;;;4.20;1.88;;;22.40;66.80;;;;;;5161632;23;20346;-59
2023/04/20 09:06:48;;;;;;;5.25;1.95;;;22.40;66.90;;;;;;5134539;22;20048;-57
2023/04/20 09:09:11;;;;;;;3.72;1.90;;;22.40;67.00;;;;;;5152311;23;20016;-57
2023/04/20 09:11:33;;;;;;;5.43;1.80;;;22.40;67.00;;;;;;5162480;23;20660;-57
2023/04/20 09:14:05;;;;;;;4.72;2.03;;;22.40;67.10;;;;;;5163011;23;20066;-60
2023/04/20 09:16:28;;;;;;;5.43;1.98;;;22.40;67.70;;;;;;5162470;23;20020;-56
2023/04/20 09:18:55;;;;;;;4.70;1.73;;;22.40;67.20;;;;;;5164088;23;20342;-57
2023/04/20 09:21:18;;;;;;;3.08;1.23;;;22.40;67.20;;;;;;5162768;23;20438;-60
2023/04/20 09:23:40;;;;;;;5.70;2.00;;;22.30;67.20;;;;;;5162279;23;20071;-58
2023/04/20 09:26:04;;;;;;;3.50;1.60;;;22.30;67.30;;;;;;5160429;23;20115;-59
2023/04/20 09:28:37;;;;;;;3.28;1.98;;;22.40;67.20;;;;;;5161635;23;20042;-58
2023/04/20 09:31:00;;;;;;;3.73;1.70;;;22.40;67.30;;;;;;5130214;23;20072;-58
2023/04/20 09:33:28;;;;;;;3.30;1.90;;;22.30;67.20;;;;;;5162096;23;20365;-58
2023/04/20 09:35:50;;;;;;;3.03;1.85;;;22.30;67.20;;;;;;5161695;23;20098;-60
2023/04/20 09:38:16;;;;;;;2.13;1.40;;;22.30;67.20;;;;;;5161067;23;20012;-59
2023/04/20 09:40:39;;;;;;;3.10;1.60;;;22.30;67.20;;;;;;5161710;23;20016;-59
2023/04/20 09:43:19;;;;;;;3.83;1.38;;;22.30;67.30;;;;;;5161148;23;20016;-60
2023/04/20 09:45:41;;;;;;;3.80;1.60;;;22.30;67.40;;;;;;5161140;23;20020;-62
2023/04/20 09:48:07;;;;;;;2.72;1.42;;;22.30;68.00;;;;;;5162374;23;20111;-59
2023/04/20 09:50:31;;;;;;;4.85;1.42;;;22.20;67.40;;;;;;5131289;23;20103;-60
2023/04/20 09:52:54;;;;;;;2.03;1.00;;;22.20;67.60;;;;;;5132690;22;20107;-59
2023/04/20 09:55:18;;;;;;;3.35;1.58;;;22.20;67.60;;;;;;5161192;23;20758;-60
2023/04/20 09:57:41;;;;;;;3.63;1.17;;;22.30;67.60;;;;;;5160723;23;20465;-58
2023/04/20 10:00:05;;;;;;;2.78;1.20;;;22.20;67.60;;;;;;5162244;23;20354;-60
2023/04/20 10:02:28;;;;;;;2.42;1.20;;;22.30;67.70;;;;;;5160837;22;20012;-59
2023/04/20 10:04:58;;;;;;;3.72;1.20;;;22.20;67.70;;;;;;5154815;22;20020;-58
2023/04/20 10:07:28;;;;;;;2.05;1.10;;;22.20;67.60;;;;;;5162613;23;20020;-60
2023/04/20 10:10:15;;;;;;;8.73;1.77;;;22.20;67.60;;;;;;5161105;23;20094;-57
2023/04/20 10:12:50;;;;;;;4.50;1.83;;;22.20;67.50;;;;;;5161436;23;20012;-60
2023/04/20 10:15:12;;;;;;;3.47;1.50;;;22.20;67.70;;;;;;5150865;23;20035;-57
2023/04/20 10:17:35;;;;;;;3.10;1.17;;;22.20;68.00;;;;;;5152167;22;20020;-57
2023/04/20 10:19:58;;;;;;;9.15;1.55;;;22.20;68.00;;;;;;5156318;22;20026;-57
2023/04/20 10:22:33;;;;;;;4.68;1.30;;;22.20;68.00;;;;;;5160315;23;20012;-57
2023/04/20 10:24:56;;;;;;;2.38;1.38;;;22.20;67.80;;;;;;5161359;23;20027;-52
2023/04/20 10:27:20;;;;;;;2.20;1.40;;;22.20;67.70;;;;;;5160638;23;20016;-56
2023/04/20 10:29:42;;;;;;;2.38;1.08;;;22.20;67.70;;;;;;5162005;23;20092;-56
2023/04/20 10:32:05;;;;;;;2.78;1.17;;;22.30;67.70;;;;;;5161622;23;20008;-55
2023/04/20 10:34:31;;;;;;;2.13;1.15;;;22.30;67.60;;;;;;5162571;23;20020;-56
2023/04/20 10:36:54;;;;;;;2.80;1.23;;;22.30;67.50;;;;;;5162366;23;20028;-58
2023/04/20 10:39:21;;;;;;;2.05;1.02;;;22.30;67.60;;;;;;5163055;23;20012;-59
2023/04/20 10:42:00;;;;;;;2.95;1.08;;;22.30;67.50;;;;;;5163411;23;20146;-60
2023/04/20 10:44:22;;;;;;;12.13;1.27;;;22.30;67.60;;;;;;5153188;23;20395;-59
2023/04/20 10:46:49;;;;;;;3.80;1.40;;;22.30;67.40;;;;;;5163200;23;20570;-57
2023/04/20 10:49:11;;;;;;;2.35;1.40;;;22.40;67.30;;;;;;5152985;23;20031;-57
2023/04/20 10:51:35;;;;;;;1.73;0.90;;;22.40;67.30;;;;;;5154955;22;20058;-52
2023/04/20 10:54:03;;;;;;;3.97;1.42;;;22.40;67.20;;;;;;5163314;23;20421;-46
2023/04/20 10:56:26;;;;;;;2.45;1.17;;;22.40;67.10;;;;;;5156780;22;20130;-56
2023/04/20 10:58:49;;;;;;;2.50;1.10;;;22.40;67.10;;;;;;5161245;23;20441;-55
2023/04/20 11:01:11;;;;;;;2.05;1.27;;;22.40;67.10;;;;;;5129633;23;20043;-57
2023/04/20 11:03:34;;;;;;;2.25;0.90;;;22.40;67.10;;;;;;5164317;22;20039;-54
2023/04/20 11:06:02;;;;;;;3.28;1.13;;;22.50;67.00;;;;;;5135793;22;20020;-52
2023/04/20 11:08:36;;;;;;;1.65;1.00;;;22.50;66.90;;;;;;5163924;23;20060;-55
2023/04/20 11:10:59;;;;;;;2.47;1.30;;;22.50;66.90;;;;;;5162998;23;20521;-55
2023/04/20 11:13:27;;;;;;;1.35;1.00;;;22.50;66.80;;;;;;5134494;22;20141;-58
2023/04/20 11:15:50;;;;;;;2.35;1.00;;;22.50;66.90;;;;;;5162268;23;20163;-53
2023/04/20 11:18:13;;;;;;;1.67;0.98;;;22.50;67.00;;;;;;5163331;23;20016;-56
2023/04/20 11:20:36;;;;;;;2.55;1.10;;;22.50;66.90;;;;;;5153734;23;20018;-52
2023/04/20 11:22:58;;;;;;;3.00;1.10;;;22.50;66.70;;;;;;5163794;23;20020;-50
2023/04/20 11:25:21;;;;;;;2.83;1.45;;;22.50;66.60;;;;;;5135531;22;20020;-57
2023/04/20 11:27:43;;;;;;;1.90;1.30;;;22.50;66.60;;;;;;5163381;23;20383;-55
2023/04/20 11:30:08;;;;;;;2.50;1.10;;;22.50;66.60;;;;;;5164098;23;20027;-53
2023/04/20 11:32:32;;;;;;;1.77;1.00;;;22.50;67.20;;;;;;5161475;23;20023;-54
2023/04/20 11:35:07;;;;;;;2.47;1.20;;;22.60;66.60;;;;;;5161699;23;20024;-58
2023/04/20 11:37:29;;;;;;;3.50;1.55;;;22.60;66.40;;;;;;5151853;23;20034;-51
2023/04/20 11:40:08;;;;;;;2.33;1.10;;;22.60;66.30;;;;;;5154855;22;20016;-48
2023/04/20 11:42:30;;;;;;;5.20;1.27;;;22.60;66.40;;;;;;5162292;23;20023;-46
2023/04/20 11:44:53;;;;;;;2.10;1.20;;;22.60;66.50;;;;;;5163948;23;20087;-50
2023/04/20 11:47:15;;;;;;;2.50;1.40;;;22.60;66.40;;;;;;5130143;23;20383;-50
2023/04/20 11:49:38;;;;;;;3.45;1.27;;;22.60;66.30;;;;;;5161982;23;20016;-55
2023/04/20 11:52:00;;;;;;;2.28;1.25;;;22.60;66.30;;;;;;5162897;23;20016;-49
2023/04/20 11:54:24;;;;;;;2.28;1.13;;;22.60;66.20;;;;;;5156001;22;20046;-47
2023/04/20 11:56:46;;;;;;;3.50;1.75;;;22.60;66.00;;;;;;5164845;23;20028;-50
2023/04/20 11:59:09;;;;;;;6.10;2.00;;;22.60;65.10;;;;;;5160738;23;20012;-51
2023/04/20 12:01:32;;;;;;;4.53;1.90;;;22.60;64.70;;;;;;5163299;23;20431;-50
2023/04/20 12:03:57;;;;;;;4.82;1.90;;;22.50;64.50;;;;;;5163177;22;20015;-47
2023/04/20 12:06:19;;;;;;;3.63;1.90;;;22.50;64.50;;;;;;5161971;23;20024;-50
2023/04/20 12:08:42;;;;;;;12.65;3.08;;;22.40;64.50;;;;;;5153016;22;20016;-60
2023/04/20 12:11:05;;;;;;;18.70;3.00;;;22.40;64.70;;;;;;5153494;22;20527;-58
2023/04/20 12:13:27;;;;;;;5.65;2.10;;;22.40;65.30;;;;;;5160027;23;20012;-59
2023/04/20 12:15:49;;;;;;;4.50;1.60;;;22.30;65.70;;;;;;5160283;23;20020;-56
2023/04/20 12:18:12;;;;;;;5.07;1.88;;;22.40;66.00;;;;;;5153672;22;20046;-59
2023/04/20 12:20:34;;;;;;;3.60;1.42;;;22.40;66.50;;;;;;5162332;23;20425;-60
2023/04/20 12:22:57;;;;;;;4.25;1.58;;;22.40;66.70;;;;;;5163356;23;20721;-58
2023/04/20 12:25:20;;;;;;;5.18;1.92;;;22.40;66.70;;;;;;5162313;23;20490;-55
2023/04/20 12:27:42;;;;;;;14.35;2.50;;;22.50;66.80;;;;;;5165260;23;20399;-54